sensor_id;sensor_type;location;lat;lon;timestamp;pressure;altitude;pressure_sealevel;temperature;humidity
73063;BME280;61230;46.328;19.972;2023-06-14T00:02:01;100264.06;;;13.09;100.00
73063;BME280;61230;46.328;19.972;2023-06-14T00:04:29;100262.12;;;13.19;100.00
73063;BME280;61230;46.328;19.972;2023-06-14T00:06:58;100261.00;;;13.30;100.00
73063;BME280;61230;46.328;19.972;2023-06-14T00:09:26;100261.84;;;13.39;100.00
73063;BME280;61230;46.328;19.972;2023-06-14T00:11:54;100260.34;;;13.44;100.00
73063;BME280;61230;46.328;19.972;2023-06-14T00:14:22;100264.69;;;13.53;100.00
73063;BME280;61230;46.328;19.972;2023-06-14T00:16:49;100278.53;;;13.47;100.00
73063;BME280;61230;46.328;19.972;2023-06-14T00:19:20;100282.50;;;13.01;100.00
73063;BME280;61230;46.328;19.972;2023-06-14T00:21:48;100275.97;;;13.13;100.00
73063;BME280;61230;46.328;19.972;2023-06-14T00:24:16;100276.88;;;12.96;100.00
73063;BME280;61230;46.328;19.972;2023-06-14T00:26:44;100273.91;;;12.91;100.00
73063;BME280;61230;46.328;19.972;2023-06-14T00:29:11;100284.41;;;12.83;100.00
73063;BME280;61230;46.328;19.972;2023-06-14T00:31:39;100276.75;;;12.72;100.00
73063;BME280;61230;46.328;19.972;2023-06-14T00:34:07;100272.62;;;12.69;100.00
73063;BME280;61230;46.328;19.972;2023-06-14T00:36:34;100230.37;;;12.36;100.00
73063;BME280;61230;46.328;19.972;2023-06-14T00:39:02;100279.22;;;12.65;100.00
73063;BME280;61230;46.328;19.972;2023-06-14T00:41:31;100281.03;;;12.65;100.00
73063;BME280;61230;46.328;19.972;2023-06-14T00:43:58;100281.09;;;12.47;100.00
73063;BME280;61230;46.328;19.972;2023-06-14T00:46:27;100287.41;;;12.29;100.00
73063;BME280;61230;46.328;19.972;2023-06-14T00:48:56;100286.06;;;12.25;100.00
73063;BME280;61230;46.328;19.972;2023-06-14T00:51:26;100283.72;;;12.22;100.00
73063;BME280;61230;46.328;19.972;2023-06-14T00:53:55;100287.87;;;12.06;100.00
73063;BME280;61230;46.328;19.972;2023-06-14T00:56:22;100283.09;;;12.02;100.00
73063;BME280;61230;46.328;19.972;2023-06-14T00:58:50;100281.72;;;11.98;100.00
73063;BME280;61230;46.328;19.972;2023-06-14T01:01:20;100279.19;;;12.06;100.00
73063;BME280;61230;46.328;19.972;2023-06-14T01:03:48;100281.34;;;11.93;100.00
73063;BME280;61230;46.328;19.972;2023-06-14T01:06:33;100278.19;;;11.89;100.00
73063;BME280;61230;46.328;19.972;2023-06-14T01:09:13;100282.19;;;11.93;100.00
73063;BME280;61230;46.328;19.972;2023-06-14T01:11:57;100271.28;;;11.88;100.00
73063;BME280;61230;46.328;19.972;2023-06-14T01:14:27;100276.91;;;11.93;100.00
73063;BME280;61230;46.328;19.972;2023-06-14T01:16:57;100270.69;;;11.94;100.00
73063;BME280;61230;46.328;19.972;2023-06-14T01:19:27;100272.84;;;11.99;100.00
73063;BME280;61230;46.328;19.972;2023-06-14T01:21:55;100267.75;;;11.97;100.00
73063;BME280;61230;46.328;19.972;2023-06-14T01:24:23;100260.84;;;12.04;100.00
73063;BME280;61230;46.328;19.972;2023-06-14T01:26:54;100267.09;;;12.03;100.00
73063;BME280;61230;46.328;19.972;2023-06-14T01:29:24;100261.47;;;11.98;100.00
73063;BME280;61230;46.328;19.972;2023-06-14T01:31:53;100266.91;;;11.79;100.00
73063;BME280;61230;46.328;19.972;2023-06-14T01:34:21;100270.38;;;11.80;100.00
73063;BME280;61230;46.328;19.972;2023-06-14T01:36:52;100271.34;;;11.79;100.00
73063;BME280;61230;46.328;19.972;2023-06-14T01:39:22;100269.19;;;11.92;100.00
73063;BME280;61230;46.328;19.972;2023-06-14T01:41:51;100267.94;;;11.86;100.00
73063;BME280;61230;46.328;19.972;2023-06-14T01:44:19;100263.97;;;11.82;100.00
73063;BME280;61230;46.328;19.972;2023-06-14T01:46:48;100264.72;;;11.92;100.00
73063;BME280;61230;46.328;19.972;2023-06-14T01:49:16;100268.28;;;11.83;100.00
73063;BME280;61230;46.328;19.972;2023-06-14T01:51:43;100271.56;;;11.50;100.00
73063;BME280;61230;46.328;19.972;2023-06-14T01:54:11;100272.31;;;11.60;100.00
73063;BME280;61230;46.328;19.972;2023-06-14T01:56:39;100271.03;;;11.46;100.00
73063;BME280;61230;46.328;19.972;2023-06-14T01:59:07;100274.50;;;11.29;100.00
73063;BME280;61230;46.328;19.972;2023-06-14T02:01:35;100268.69;;;11.26;100.00
73063;BME280;61230;46.328;19.972;2023-06-14T02:04:04;100267.81;;;11.35;100.00
73063;BME280;61230;46.328;19.972;2023-06-14T02:06:31;100279.12;;;11.35;100.00
73063;BME280;61230;46.328;19.972;2023-06-14T02:09:01;100276.06;;;11.40;100.00
73063;BME280;61230;46.328;19.972;2023-06-14T02:11:30;100274.28;;;11.40;100.00
73063;BME280;61230;46.328;19.972;2023-06-14T02:13:58;100272.31;;;11.42;100.00
73063;BME280;61230;46.328;19.972;2023-06-14T02:16:27;100275.78;;;11.43;100.00
73063;BME280;61230;46.328;19.972;2023-06-14T02:18:57;100275.78;;;11.43;100.00
73063;BME280;61230;46.328;19.972;2023-06-14T02:21:25;100278.22;;;11.27;100.00
73063;BME280;61230;46.328;19.972;2023-06-14T02:23:53;100277.31;;;11.18;100.00
73063;BME280;61230;46.328;19.972;2023-06-14T02:26:20;100275.59;;;11.27;100.00
73063;BME280;61230;46.328;19.972;2023-06-14T02:28:48;100285.53;;;11.33;100.00
73063;BME280;61230;46.328;19.972;2023-06-14T02:31:16;100281.94;;;11.34;100.00
73063;BME280;61230;46.328;19.972;2023-06-14T02:33:43;100282.00;;;11.24;100.00
73063;BME280;61230;46.328;19.972;2023-06-14T02:36:11;100281.91;;;11.16;100.00
73063;BME280;61230;46.328;19.972;2023-06-14T02:38:39;100284.78;;;11.23;100.00
73063;BME280;61230;46.328;19.972;2023-06-14T02:41:09;100279.91;;;11.28;100.00
73063;BME280;61230;46.328;19.972;2023-06-14T02:43:37;100288.16;;;11.15;100.00
73063;BME280;61230;46.328;19.972;2023-06-14T02:46:06;100285.97;;;10.83;100.00
73063;BME280;61230;46.328;19.972;2023-06-14T02:48:34;100287.38;;;10.78;100.00
73063;BME280;61230;46.328;19.972;2023-06-14T02:51:02;100285.50;;;10.61;100.00
73063;BME280;61230;46.328;19.972;2023-06-14T02:53:29;100293.88;;;10.47;100.00
73063;BME280;61230;46.328;19.972;2023-06-14T02:55:58;100245.91;;;9.97;100.00
73063;BME280;61230;46.328;19.972;2023-06-14T02:58:26;100293.38;;;10.24;100.00
73063;BME280;61230;46.328;19.972;2023-06-14T03:00:54;100293.53;;;10.13;100.00
73063;BME280;61230;46.328;19.972;2023-06-14T03:03:22;100297.63;;;10.25;100.00
73063;BME280;61230;46.328;19.972;2023-06-14T03:05:53;100297.78;;;10.33;100.00
73063;BME280;61230;46.328;19.972;2023-06-14T03:08:22;100291.81;;;10.31;100.00
73063;BME280;61230;46.328;19.972;2023-06-14T03:10:55;100298.69;;;10.42;100.00
73063;BME280;61230;46.328;19.972;2023-06-14T03:13:23;100292.19;;;10.55;100.00
73063;BME280;61230;46.328;19.972;2023-06-14T03:15:51;100287.41;;;10.68;100.00
73063;BME280;61230;46.328;19.972;2023-06-14T03:18:20;100296.91;;;10.79;100.00
73063;BME280;61230;46.328;19.972;2023-06-14T03:20:54;100287.87;;;10.91;100.00
73063;BME280;61230;46.328;19.972;2023-06-14T03:23:25;100277.97;;;10.75;100.00
73063;BME280;61230;46.328;19.972;2023-06-14T03:25:52;100301.03;;;10.91;100.00
73063;BME280;61230;46.328;19.972;2023-06-14T03:28:21;100307.22;;;10.63;100.00
73063;BME280;61230;46.328;19.972;2023-06-14T03:30:49;100252.19;;;10.42;100.00
73063;BME280;61230;46.328;19.972;2023-06-14T03:33:17;100297.16;;;10.85;100.00
73063;BME280;61230;46.328;19.972;2023-06-14T03:35:45;100258.75;;;10.65;100.00
73063;BME280;61230;46.328;19.972;2023-06-14T03:38:13;100296.25;;;11.04;100.00
73063;BME280;61230;46.328;19.972;2023-06-14T03:40:40;100301.34;;;11.15;100.00
73063;BME280;61230;46.328;19.972;2023-06-14T03:43:08;100300.28;;;11.26;100.00
73063;BME280;61230;46.328;19.972;2023-06-14T03:45:36;100301.94;;;11.27;100.00
73063;BME280;61230;46.328;19.972;2023-06-14T03:48:04;100305.09;;;11.30;100.00
73063;BME280;61230;46.328;19.972;2023-06-14T03:50:34;100302.56;;;11.21;100.00
73063;BME280;61230;46.328;19.972;2023-06-14T03:53:06;100303.00;;;11.34;100.00
73063;BME280;61230;46.328;19.972;2023-06-14T03:55:35;100264.00;;;11.20;100.00
73063;BME280;61230;46.328;19.972;2023-06-14T03:58:23;100308.09;;;11.63;100.00
73063;BME280;61230;46.328;19.972;2023-06-14T04:00:51;100303.25;;;11.58;100.00
73063;BME280;61230;46.328;19.972;2023-06-14T04:03:19;100311.06;;;11.77;100.00
73063;BME280;61230;46.328;19.972;2023-06-14T04:05:47;100312.88;;;11.94;100.00
73063;BME280;61230;46.328;19.972;2023-06-14T04:08:17;100317.19;;;12.03;100.00
73063;BME280;61230;46.328;19.972;2023-06-14T04:10:47;100315.47;;;12.12;100.00
73063;BME280;61230;46.328;19.972;2023-06-14T04:13:14;100277.94;;;12.00;100.00
73063;BME280;61230;46.328;19.972;2023-06-14T04:15:42;100324.53;;;12.35;100.00
73063;BME280;61230;46.328;19.972;2023-06-14T04:18:12;100325.44;;;12.44;100.00
73063;BME280;61230;46.328;19.972;2023-06-14T04:20:40;100329.88;;;12.69;100.00
73063;BME280;61230;46.328;19.972;2023-06-14T04:23:14;100325.50;;;12.86;100.00
73063;BME280;61230;46.328;19.972;2023-06-14T04:25:42;100330.69;;;12.95;100.00
73063;BME280;61230;46.328;19.972;2023-06-14T04:28:13;100330.03;;;13.01;100.00
73063;BME280;61230;46.328;19.972;2023-06-14T04:30:45;100327.06;;;13.30;100.00
73063;BME280;61230;46.328;19.972;2023-06-14T04:33:14;100333.34;;;13.45;100.00
73063;BME280;61230;46.328;19.972;2023-06-14T04:35:42;100336.38;;;13.50;100.00
73063;BME280;61230;46.328;19.972;2023-06-14T04:38:10;100340.19;;;13.56;100.00
73063;BME280;61230;46.328;19.972;2023-06-14T04:40:38;100338.06;;;13.75;100.00
73063;BME280;61230;46.328;19.972;2023-06-14T04:43:14;100351.50;;;13.98;100.00
73063;BME280;61230;46.328;19.972;2023-06-14T04:45:43;100355.81;;;14.23;100.00
73063;BME280;61230;46.328;19.972;2023-06-14T04:48:14;100344.72;;;14.52;100.00
73063;BME280;61230;46.328;19.972;2023-06-14T04:50:41;100342.44;;;14.41;100.00
73063;BME280;61230;46.328;19.972;2023-06-14T04:53:10;100349.97;;;14.68;100.00
73063;BME280;61230;46.328;19.972;2023-06-14T04:55:38;100353.75;;;14.82;100.00
73063;BME280;61230;46.328;19.972;2023-06-14T04:58:07;100344.53;;;14.70;100.00
73063;BME280;61230;46.328;19.972;2023-06-14T05:00:35;100348.81;;;14.87;100.00
73063;BME280;61230;46.328;19.972;2023-06-14T05:03:03;100339.66;;;14.98;100.00
73063;BME280;61230;46.328;19.972;2023-06-14T05:05:34;100341.94;;;15.09;100.00
73063;BME280;61230;46.328;19.972;2023-06-14T05:08:01;100354.12;;;15.26;100.00
73063;BME280;61230;46.328;19.972;2023-06-14T05:10:29;100354.31;;;14.69;100.00
73063;BME280;61230;46.328;19.972;2023-06-14T05:12:57;100346.59;;;14.98;100.00
73063;BME280;61230;46.328;19.972;2023-06-14T05:15:24;100308.81;;;15.05;100.00
73063;BME280;61230;46.328;19.972;2023-06-14T05:17:54;100352.84;;;15.52;100.00
73063;BME280;61230;46.328;19.972;2023-06-14T05:20:24;100344.19;;;15.59;100.00
73063;BME280;61230;46.328;19.972;2023-06-14T05:22:53;100319.69;;;15.57;100.00
73063;BME280;61230;46.328;19.972;2023-06-14T05:25:21;100358.09;;;15.91;100.00
73063;BME280;61230;46.328;19.972;2023-06-14T05:27:48;100353.66;;;16.06;100.00
73063;BME280;61230;46.328;19.972;2023-06-14T05:30:16;100353.78;;;16.13;100.00
73063;BME280;61230;46.328;19.972;2023-06-14T05:32:44;100359.31;;;16.26;99.64
73063;BME280;61230;46.328;19.972;2023-06-14T05:35:12;100359.94;;;16.51;97.48
73063;BME280;61230;46.328;19.972;2023-06-14T05:37:40;100357.97;;;16.67;96.71
73063;BME280;61230;46.328;19.972;2023-06-14T05:40:08;100361.66;;;16.81;94.74
73063;BME280;61230;46.328;19.972;2023-06-14T05:42:37;100359.53;;;17.06;93.62
73063;BME280;61230;46.328;19.972;2023-06-14T05:45:05;100362.13;;;17.14;93.89
73063;BME280;61230;46.328;19.972;2023-06-14T05:47:33;100353.03;;;17.23;93.18
73063;BME280;61230;46.328;19.972;2023-06-14T05:50:01;100365.94;;;17.41;92.25
73063;BME280;61230;46.328;19.972;2023-06-14T05:52:32;100375.31;;;17.22;91.95
73063;BME280;61230;46.328;19.972;2023-06-14T05:58:30;100361.63;;;17.54;89.88
73063;BME280;61230;46.328;19.972;2023-06-14T06:00:58;100362.03;;;17.72;89.68
73063;BME280;61230;46.328;19.972;2023-06-14T06:03:26;100330.94;;;17.73;88.90
73063;BME280;61230;46.328;19.972;2023-06-14T06:05:59;100368.22;;;18.15;87.61
73063;BME280;61230;46.328;19.972;2023-06-14T06:08:27;100364.72;;;18.15;86.79
73063;BME280;61230;46.328;19.972;2023-06-14T06:10:55;100367.31;;;18.29;86.32
73063;BME280;61230;46.328;19.972;2023-06-14T06:13:23;100326.47;;;18.22;84.86
73063;BME280;61230;46.328;19.972;2023-06-14T06:15:51;100371.03;;;18.56;84.55
73063;BME280;61230;46.328;19.972;2023-06-14T06:18:18;100335.69;;;18.48;85.08
73063;BME280;61230;46.328;19.972;2023-06-14T06:20:46;100373.13;;;18.88;83.05
73063;BME280;61230;46.328;19.972;2023-06-14T06:23:14;100372.53;;;18.93;82.90
73063;BME280;61230;46.328;19.972;2023-06-14T06:25:42;100380.63;;;19.06;82.49
73063;BME280;61230;46.328;19.972;2023-06-14T06:28:10;100375.13;;;19.14;82.15
73063;BME280;61230;46.328;19.972;2023-06-14T06:30:38;100340.84;;;19.11;81.19
73063;BME280;61230;46.328;19.972;2023-06-14T06:33:06;100376.94;;;19.41;80.92
73063;BME280;61230;46.328;19.972;2023-06-14T06:35:34;100376.03;;;18.93;79.07
73063;BME280;61230;46.328;19.972;2023-06-14T06:38:02;100372.25;;;19.50;79.02
73063;BME280;61230;46.328;19.972;2023-06-14T06:40:30;100372.75;;;19.73;77.34
73063;BME280;61230;46.328;19.972;2023-06-14T06:42:57;100375.69;;;19.91;75.26
73063;BME280;61230;46.328;19.972;2023-06-14T06:45:26;100378.38;;;20.04;75.01
73063;BME280;61230;46.328;19.972;2023-06-14T06:47:53;100378.03;;;20.34;74.71
73063;BME280;61230;46.328;19.972;2023-06-14T06:50:22;100372.25;;;20.43;72.60
73063;BME280;61230;46.328;19.972;2023-06-14T06:52:51;100382.56;;;20.53;71.15
73063;BME280;61230;46.328;19.972;2023-06-14T06:55:18;100374.03;;;19.97;72.75
73063;BME280;61230;46.328;19.972;2023-06-14T06:57:46;100378.66;;;20.62;71.82
73063;BME280;61230;46.328;19.972;2023-06-14T07:00:14;100380.88;;;20.85;71.67
73063;BME280;61230;46.328;19.972;2023-06-14T07:02:42;100377.16;;;21.05;72.05
73063;BME280;61230;46.328;19.972;2023-06-14T07:05:10;100378.78;;;21.19;70.70
73063;BME280;61230;46.328;19.972;2023-06-14T07:07:38;100348.94;;;21.09;70.69
73063;BME280;61230;46.328;19.972;2023-06-14T07:10:06;100380.19;;;21.29;68.10
73063;BME280;61230;46.328;19.972;2023-06-14T07:12:34;100371.12;;;21.30;70.10
73063;BME280;61230;46.328;19.972;2023-06-14T07:15:07;100339.38;;;21.40;70.38
73063;BME280;61230;46.328;19.972;2023-06-14T07:17:36;100368.28;;;21.69;68.67
73063;BME280;61230;46.328;19.972;2023-06-14T07:20:04;100345.03;;;21.12;69.37
73063;BME280;61230;46.328;19.972;2023-06-14T07:22:35;100336.75;;;21.27;68.11
73063;BME280;61230;46.328;19.972;2023-06-14T07:25:04;100344.19;;;21.25;68.43
73063;BME280;61230;46.328;19.972;2023-06-14T07:27:32;100342.00;;;21.53;66.10
73063;BME280;61230;46.328;19.972;2023-06-14T07:30:00;100385.19;;;21.05;64.46
73063;BME280;61230;46.328;19.972;2023-06-14T07:32:28;100355.09;;;21.03;65.00
73063;BME280;61230;46.328;19.972;2023-06-14T07:34:56;100379.00;;;21.05;64.43
73063;BME280;61230;46.328;19.972;2023-06-14T07:37:24;100375.78;;;20.57;66.06
73063;BME280;61230;46.328;19.972;2023-06-14T07:39:51;100349.78;;;21.10;65.33
73063;BME280;61230;46.328;19.972;2023-06-14T07:42:19;100379.37;;;21.79;64.95
73063;BME280;61230;46.328;19.972;2023-06-14T07:44:47;100379.91;;;22.25;64.60
73063;BME280;61230;46.328;19.972;2023-06-14T07:47:14;100384.31;;;22.45;59.86
73063;BME280;61230;46.328;19.972;2023-06-14T07:49:42;100383.06;;;22.72;59.18
73063;BME280;61230;46.328;19.972;2023-06-14T07:52:10;100390.22;;;22.53;53.23
73063;BME280;61230;46.328;19.972;2023-06-14T07:54:38;100386.59;;;21.72;57.29
73063;BME280;61230;46.328;19.972;2023-06-14T07:57:06;100384.94;;;22.71;56.42
73063;BME280;61230;46.328;19.972;2023-06-14T07:59:34;100374.62;;;23.11;57.54
73063;BME280;61230;46.328;19.972;2023-06-14T08:02:02;100385.38;;;23.29;54.06
73063;BME280;61230;46.328;19.972;2023-06-14T08:04:31;100358.38;;;23.24;51.29
73063;BME280;61230;46.328;19.972;2023-06-14T08:06:59;100385.53;;;23.53;54.61
73063;BME280;61230;46.328;19.972;2023-06-14T08:09:28;100380.56;;;23.38;52.70
73063;BME280;61230;46.328;19.972;2023-06-14T08:11:56;100389.41;;;23.20;52.97
73063;BME280;61230;46.328;19.972;2023-06-14T08:14:24;100386.72;;;22.77;46.58
73063;BME280;61230;46.328;19.972;2023-06-14T08:16:52;100400.34;;;23.37;49.63
73063;BME280;61230;46.328;19.972;2023-06-14T08:19:19;100386.13;;;23.18;49.50
73063;BME280;61230;46.328;19.972;2023-06-14T08:21:47;100357.94;;;23.09;47.96
73063;BME280;61230;46.328;19.972;2023-06-14T08:24:15;100352.00;;;22.64;49.11
73063;BME280;61230;46.328;19.972;2023-06-14T08:26:43;100361.34;;;22.98;50.54
73063;BME280;61230;46.328;19.972;2023-06-14T08:29:11;100353.44;;;23.39;49.78
73063;BME280;61230;46.328;19.972;2023-06-14T08:31:38;100388.88;;;23.96;47.82
73063;BME280;61230;46.328;19.972;2023-06-14T08:34:06;100397.38;;;23.93;42.20
73063;BME280;61230;46.328;19.972;2023-06-14T08:36:35;100385.78;;;24.11;44.81
73063;BME280;61230;46.328;19.972;2023-06-14T08:39:03;100361.66;;;23.44;41.54
73063;BME280;61230;46.328;19.972;2023-06-14T08:41:31;100396.66;;;24.57;43.68
73063;BME280;61230;46.328;19.972;2023-06-14T08:44:02;100394.88;;;24.39;42.89
73063;BME280;61230;46.328;19.972;2023-06-14T08:46:32;100392.06;;;24.34;42.06
73063;BME280;61230;46.328;19.972;2023-06-14T08:49:02;100403.75;;;24.40;41.32
73063;BME280;61230;46.328;19.972;2023-06-14T08:51:31;100404.97;;;24.67;40.79
73063;BME280;61230;46.328;19.972;2023-06-14T08:54:02;100398.78;;;24.90;41.96
73063;BME280;61230;46.328;19.972;2023-06-14T08:56:31;100400.31;;;25.09;41.21
73063;BME280;61230;46.328;19.972;2023-06-14T08:58:59;100394.69;;;25.22;41.92
73063;BME280;61230;46.328;19.972;2023-06-14T09:01:35;100400.09;;;24.87;41.41
73063;BME280;61230;46.328;19.972;2023-06-14T09:04:04;100397.28;;;24.82;41.47
73063;BME280;61230;46.328;19.972;2023-06-14T09:06:34;100399.25;;;25.10;40.21
73063;BME280;61230;46.328;19.972;2023-06-14T09:09:04;100387.06;;;25.19;39.35
73063;BME280;61230;46.328;19.972;2023-06-14T09:11:31;100399.59;;;25.48;39.45
73063;BME280;61230;46.328;19.972;2023-06-14T09:14:00;100394.06;;;25.83;39.49
73063;BME280;61230;46.328;19.972;2023-06-14T09:16:28;100403.22;;;25.82;38.68
73063;BME280;61230;46.328;19.972;2023-06-14T09:19:01;100379.56;;;25.73;36.82
73063;BME280;61230;46.328;19.972;2023-06-14T09:21:34;100393.66;;;25.63;37.74
73063;BME280;61230;46.328;19.972;2023-06-14T09:24:13;100406.06;;;25.76;35.98
73063;BME280;61230;46.328;19.972;2023-06-14T09:26:42;100388.84;;;25.13;37.33
73063;BME280;61230;46.328;19.972;2023-06-14T09:29:11;100396.03;;;25.88;36.55
73063;BME280;61230;46.328;19.972;2023-06-14T09:31:48;100398.25;;;25.91;35.62
73063;BME280;61230;46.328;19.972;2023-06-14T09:34:24;100400.25;;;26.12;34.74
73063;BME280;61230;46.328;19.972;2023-06-14T09:36:52;100395.41;;;26.25;34.51
73063;BME280;61230;46.328;19.972;2023-06-14T09:39:23;100396.75;;;26.56;35.00
73063;BME280;61230;46.328;19.972;2023-06-14T09:41:52;100393.44;;;26.38;33.90
73063;BME280;61230;46.328;19.972;2023-06-14T09:44:20;100391.97;;;26.63;34.69
73063;BME280;61230;46.328;19.972;2023-06-14T09:46:49;100390.34;;;26.01;32.81
73063;BME280;61230;46.328;19.972;2023-06-14T09:49:18;100393.37;;;26.82;34.36
73063;BME280;61230;46.328;19.972;2023-06-14T09:51:50;100351.41;;;26.75;34.73
73063;BME280;61230;46.328;19.972;2023-06-14T09:54:22;100386.44;;;26.87;33.81
73063;BME280;61230;46.328;19.972;2023-06-14T09:56:51;100388.09;;;26.88;32.76
73063;BME280;61230;46.328;19.972;2023-06-14T09:59:22;100395.66;;;27.07;33.70
73063;BME280;61230;46.328;19.972;2023-06-14T10:01:58;100385.03;;;26.67;32.66
73063;BME280;61230;46.328;19.972;2023-06-14T10:04:29;100381.94;;;26.59;33.03
73063;BME280;61230;46.328;19.972;2023-06-14T10:06:58;100347.84;;;26.36;32.70
73063;BME280;61230;46.328;19.972;2023-06-14T10:09:27;100391.19;;;27.18;33.21
73063;BME280;61230;46.328;19.972;2023-06-14T10:12:00;100379.69;;;27.71;32.41
73063;BME280;61230;46.328;19.972;2023-06-14T10:14:28;100380.59;;;27.55;32.75
73063;BME280;61230;46.328;19.972;2023-06-14T10:17:04;100381.53;;;27.87;32.90
73063;BME280;61230;46.328;19.972;2023-06-14T10:19:44;100381.97;;;27.35;31.43
73063;BME280;61230;46.328;19.972;2023-06-14T10:22:21;100381.72;;;27.59;32.22
73063;BME280;61230;46.328;19.972;2023-06-14T10:24:52;100347.06;;;27.34;31.57
73063;BME280;61230;46.328;19.972;2023-06-14T10:27:20;100380.88;;;27.80;32.53
73063;BME280;61230;46.328;19.972;2023-06-14T10:32:22;100386.97;;;27.92;31.02
73063;BME280;61230;46.328;19.972;2023-06-14T10:34:54;100372.53;;;26.61;31.95
73063;BME280;61230;46.328;19.972;2023-06-14T10:37:22;100377.03;;;26.39;32.38
73063;BME280;61230;46.328;19.972;2023-06-14T10:39:51;100370.84;;;26.77;32.18
73063;BME280;61230;46.328;19.972;2023-06-14T10:42:20;100368.81;;;26.17;32.39
73063;BME280;61230;46.328;19.972;2023-06-14T10:44:51;100371.28;;;26.69;32.36
73063;BME280;61230;46.328;19.972;2023-06-14T10:49:53;100367.97;;;27.38;31.62
73063;BME280;61230;46.328;19.972;2023-06-14T10:52:25;100358.38;;;26.88;31.53
73063;BME280;61230;46.328;19.972;2023-06-14T10:55:11;100354.19;;;27.40;31.58
73063;BME280;61230;46.328;19.972;2023-06-14T10:57:52;100358.53;;;26.31;32.95
73063;BME280;61230;46.328;19.972;2023-06-14T11:00:24;100354.69;;;25.42;32.45
73063;BME280;61230;46.328;19.972;2023-06-14T11:05:42;100354.31;;;25.62;33.76
73063;BME280;61230;46.328;19.972;2023-06-14T11:11:22;100361.00;;;26.49;31.34
73063;BME280;61230;46.328;19.972;2023-06-14T11:13:51;100357.88;;;27.34;30.96
73063;BME280;61230;46.328;19.972;2023-06-14T11:16:26;100354.00;;;27.68;30.72
73063;BME280;61230;46.328;19.972;2023-06-14T11:18:55;100315.78;;;27.86;31.13
73063;BME280;61230;46.328;19.972;2023-06-14T11:21:24;100344.03;;;27.47;31.18
73063;BME280;61230;46.328;19.972;2023-06-14T11:23:52;100344.81;;;28.23;31.27
73063;BME280;61230;46.328;19.972;2023-06-14T11:26:29;100343.72;;;27.97;30.18
73063;BME280;61230;46.328;19.972;2023-06-14T11:28:58;100306.56;;;27.87;31.47
73063;BME280;61230;46.328;19.972;2023-06-14T11:31:28;100334.19;;;28.16;30.78
73063;BME280;61230;46.328;19.972;2023-06-14T11:34:01;100331.78;;;28.51;30.56
73063;BME280;61230;46.328;19.972;2023-06-14T11:36:35;100333.53;;;28.73;29.27
73063;BME280;61230;46.328;19.972;2023-06-14T11:39:04;100334.69;;;28.45;29.69
73063;BME280;61230;46.328;19.972;2023-06-14T11:41:43;100335.22;;;28.42;28.87
73063;BME280;61230;46.328;19.972;2023-06-14T11:44:11;100333.00;;;28.39;29.00
73063;BME280;61230;46.328;19.972;2023-06-14T11:46:40;100329.03;;;28.46;30.42
73063;BME280;61230;46.328;19.972;2023-06-14T11:49:08;100304.34;;;28.38;28.70
73063;BME280;61230;46.328;19.972;2023-06-14T11:51:37;100319.13;;;28.25;28.35
73063;BME280;61230;46.328;19.972;2023-06-14T11:54:06;100325.37;;;28.31;28.94
73063;BME280;61230;46.328;19.972;2023-06-14T11:56:34;100328.28;;;28.56;29.54
73063;BME280;61230;46.328;19.972;2023-06-14T11:59:03;100313.69;;;28.62;27.87
73063;BME280;61230;46.328;19.972;2023-06-14T12:01:36;100312.47;;;28.38;27.66
73063;BME280;61230;46.328;19.972;2023-06-14T12:04:04;100307.41;;;27.61;28.04
73063;BME280;61230;46.328;19.972;2023-06-14T12:06:32;100313.56;;;28.10;29.87
73063;BME280;61230;46.328;19.972;2023-06-14T12:09:04;100312.63;;;28.26;28.07
73063;BME280;61230;46.328;19.972;2023-06-14T12:11:35;100317.19;;;27.94;27.68
73063;BME280;61230;46.328;19.972;2023-06-14T12:14:04;100316.59;;;28.50;27.73
73063;BME280;61230;46.328;19.972;2023-06-14T12:16:34;100314.06;;;28.39;28.11
73063;BME280;61230;46.328;19.972;2023-06-14T12:19:13;100306.88;;;28.18;28.67
73063;BME280;61230;46.328;19.972;2023-06-14T12:21:42;100295.50;;;27.89;27.10
73063;BME280;61230;46.328;19.972;2023-06-14T12:24:12;100274.25;;;27.44;28.54
73063;BME280;61230;46.328;19.972;2023-06-14T12:26:41;100304.13;;;27.59;27.95
73063;BME280;61230;46.328;19.972;2023-06-14T12:29:09;100318.66;;;27.53;28.19
73063;BME280;61230;46.328;19.972;2023-06-14T12:31:38;100322.31;;;26.99;28.54
73063;BME280;61230;46.328;19.972;2023-06-14T12:34:05;100313.03;;;27.33;27.83
73063;BME280;61230;46.328;19.972;2023-06-14T12:36:33;100312.16;;;26.67;28.09
73063;BME280;61230;46.328;19.972;2023-06-14T12:39:01;100311.06;;;26.68;29.37
73063;BME280;61230;46.328;19.972;2023-06-14T12:41:29;100318.19;;;27.13;29.14
73063;BME280;61230;46.328;19.972;2023-06-14T12:43:56;100273.88;;;27.14;29.25
73063;BME280;61230;46.328;19.972;2023-06-14T12:46:27;100297.69;;;27.38;29.64
73063;BME280;61230;46.328;19.972;2023-06-14T12:48:54;100305.97;;;27.32;28.24
73063;BME280;61230;46.328;19.972;2023-06-14T12:51:22;100298.69;;;27.11;29.22
73063;BME280;61230;46.328;19.972;2023-06-14T12:53:51;100297.16;;;26.60;29.94
73063;BME280;61230;46.328;19.972;2023-06-14T12:56:19;100302.53;;;26.76;28.87
73063;BME280;61230;46.328;19.972;2023-06-14T12:58:50;100301.19;;;26.57;29.02
73063;BME280;61230;46.328;19.972;2023-06-14T13:01:18;100303.25;;;26.50;28.95